Time;durP1;ratioP1;P1;durP2;ratioP2;P2;SDS_P1;SDS_P2;PMS_P1;PMS_P2;Temp;Humidity;BMP_temperature;BMP_pressure;BME280_temperature;BME280_humidity;BME280_pressure;Samples;Min_cycle;Max_cycle;Signal;HPM_P1;HPM_P2
2022/12/06 00:01:39;;;;;;;31.60;29.90;;;;;;;-141.22;100.00;65034.22;5051732;28;20442;-47
2022/12/06 00:04:11;;;;;;;31.93;30.17;;;;;;;-141.22;100.00;65034.22;5052055;28;20872;-48
2022/12/06 00:06:40;;;;;;;32.87;30.97;;;;;;;-141.22;100.00;65034.22;5051878;28;20449;-43
2022/12/06 00:09:11;;;;;;;33.23;31.53;;;;;;;-141.22;100.00;65034.22;5051813;28;20431;-42
2022/12/06 00:11:39;;;;;;;32.37;30.67;;;;;;;-141.22;100.00;65034.22;5051317;28;20864;-43
2022/12/06 00:14:07;;;;;;;33.40;31.70;;;;;;;-141.22;100.00;65034.22;5051748;28;20507;-45
2022/12/06 00:16:36;;;;;;;35.37;33.37;;;;;;;-141.22;100.00;65034.22;5051570;28;20479;-45
2022/12/06 00:19:05;;;;;;;33.67;31.80;;;;;;;-141.22;100.00;65034.22;5051813;28;20431;-46
2022/12/06 00:21:35;;;;;;;34.27;32.20;;;;;;;-141.22;100.00;65034.22;5051387;28;20437;-42
2022/12/06 00:24:05;;;;;;;35.73;33.90;;;;;;;-141.22;100.00;65034.22;5051383;28;20432;-46
2022/12/06 00:26:36;;;;;;;39.60;37.30;;;;;;;-141.22;100.00;65034.22;5051895;28;20459;-46
2022/12/06 00:29:05;;;;;;;43.23;40.93;;;;;;;-141.22;100.00;65034.22;5051331;28;20434;-46
2022/12/06 00:31:34;;;;;;;59.43;56.33;;;;;;;-141.22;100.00;65034.22;5051199;28;20439;-47
2022/12/06 00:34:03;;;;;;;72.07;68.57;;;;;;;-141.22;100.00;65034.22;5051414;28;20427;-47
2022/12/06 00:36:33;;;;;;;173.00;166.20;;;;;;;-141.22;100.00;65034.22;5051375;28;20479;-47
2022/12/06 00:39:02;;;;;;;265.53;255.20;;;;;;;-141.22;100.00;65034.22;5051714;28;20433;-44
2022/12/06 00:41:30;;;;;;;300.00;286.93;;;;;;;-141.22;100.00;65034.22;5051215;28;20431;-46
2022/12/06 00:43:58;;;;;;;299.07;287.70;;;;;;;-141.22;100.00;65034.22;5051332;28;20435;-46
2022/12/06 00:46:29;;;;;;;331.00;317.27;;;;;;;-141.22;100.00;65034.22;5051463;28;20477;-46
2022/12/06 00:48:58;;;;;;;323.73;310.43;;;;;;;-141.22;100.00;65034.22;5051551;28;20772;-44
2022/12/06 00:51:29;;;;;;;351.73;337.23;;;;;;;-141.22;100.00;65034.22;5051042;28;20920;-44
2022/12/06 00:53:57;;;;;;;317.87;305.00;;;;;;;-141.22;100.00;65034.22;5051499;28;20431;-46
2022/12/06 00:56:25;;;;;;;347.27;332.37;;;;;;;-141.22;100.00;65034.22;5051603;28;20483;-44
2022/12/06 00:58:53;;;;;;;362.27;346.57;;;;;;;-141.22;100.00;65034.22;5055295;28;20431;-45
2022/12/06 01:01:22;;;;;;;347.97;332.90;;;;;;;-141.22;100.00;65034.22;5055282;28;20438;-42
2022/12/06 01:03:52;;;;;;;354.53;339.33;;;;;;;-141.22;100.00;65034.22;5054820;28;20538;-42
2022/12/06 01:06:26;;;;;;;325.87;311.67;;;;;;;-141.22;100.00;65034.22;5055164;28;20501;-44
2022/12/06 01:08:56;;;;;;;353.87;337.87;;;;;;;-141.22;100.00;65034.22;5054783;28;20521;-49
2022/12/06 01:11:25;;;;;;;343.97;328.77;;;;;;;-141.22;100.00;65034.22;5055512;28;20424;-44
2022/12/06 01:13:54;;;;;;;355.80;339.50;;;;;;;-141.22;100.00;65034.22;5054736;28;20450;-49
2022/12/06 01:16:23;;;;;;;337.83;322.77;;;;;;;-141.22;100.00;65034.22;5054921;28;20483;-43
2022/12/06 01:18:52;;;;;;;333.37;318.47;;;;;;;-141.22;100.00;65034.22;5055206;28;20463;-45
2022/12/06 01:21:21;;;;;;;325.63;311.03;;;;;;;-141.22;100.00;65034.22;5055070;28;20518;-42
2022/12/06 01:23:49;;;;;;;326.73;311.80;;;;;;;-141.22;100.00;65034.22;5054324;28;20543;-41
2022/12/06 01:26:20;;;;;;;322.73;308.17;;;;;;;-141.22;100.00;65034.22;5054686;28;20968;-42
2022/12/06 01:28:48;;;;;;;336.40;320.70;;;;;;;-141.22;100.00;65034.22;5054772;28;20936;-42
2022/12/06 01:31:16;;;;;;;329.20;314.20;;;;;;;-141.22;100.00;65034.22;5054752;28;20434;-48
2022/12/06 01:33:45;;;;;;;327.50;312.50;;;;;;;-141.22;100.00;65034.22;5054245;28;20493;-45
2022/12/06 01:36:17;;;;;;;314.60;300.30;;;;;;;-141.22;100.00;65034.22;5054634;28;20483;-41
2022/12/06 01:38:48;;;;;;;281.27;268.50;;;;;;;-141.22;100.00;65034.22;5054636;28;20929;-42
2022/12/06 01:41:16;;;;;;;260.40;248.20;;;;;;;-141.22;100.00;65034.22;5054605;28;20450;-44
2022/12/06 01:43:45;;;;;;;255.10;243.60;;;;;;;-141.22;100.00;65034.22;5053788;28;21014;-44
2022/12/06 01:46:22;;;;;;;230.67;220.17;;;;;;;-141.22;100.00;65034.22;5054544;28;20454;-43
2022/12/06 01:48:52;;;;;;;205.43;195.70;;;;;;;-141.22;100.00;65034.22;5054701;28;20533;-42
2022/12/06 01:51:21;;;;;;;187.73;178.63;;;;;;;-141.22;100.00;65034.22;5054476;28;20428;-43
2022/12/06 01:53:50;;;;;;;127.50;121.10;;;;;;;-141.22;100.00;65034.22;5053652;28;20837;-43
2022/12/06 01:56:19;;;;;;;70.03;65.53;;;;;;;-141.22;100.00;65034.22;5054238;28;20451;-42
2022/12/06 01:58:52;;;;;;;37.67;34.30;;;;;;;-141.22;100.00;65034.22;5054144;28;20435;-47
2022/12/06 02:01:19;;;;;;;37.90;34.83;;;;;;;-141.22;100.00;65034.22;5054328;28;20427;-42
2022/12/06 02:03:48;;;;;;;36.60;33.30;;;;;;;-141.22;100.00;65034.22;5053450;28;20463;-44
2022/12/06 02:06:17;;;;;;;37.30;33.40;;;;;;;-141.22;100.00;65034.22;5054006;28;20455;-42
2022/12/06 02:08:46;;;;;;;35.90;32.73;;;;;;;-141.22;100.00;65034.22;5053329;28;20435;-46
2022/12/06 02:11:13;;;;;;;36.27;33.07;;;;;;;-141.22;100.00;65034.22;5054182;28;20435;-41
2022/12/06 02:13:41;;;;;;;35.10;32.20;;;;;;;-141.22;100.00;65034.22;5052838;28;20459;-43
2022/12/06 02:16:23;;;;;;;35.50;32.25;;;;;;;-141.22;100.00;65034.22;5053885;28;20459;-42
2022/12/06 02:18:56;;;;;;;34.97;32.07;;;;;;;-141.22;100.00;65034.22;5053966;28;20450;-45
2022/12/06 02:21:32;;;;;;;35.00;32.10;;;;;;;-141.22;100.00;65034.22;5054080;28;20431;-44
2022/12/06 02:24:39;;;;;;;34.73;32.00;;;;;;;-141.22;100.00;65034.22;5053445;28;20441;-43
2022/12/06 02:27:55;;;;;;;35.13;32.03;;;;;;;-141.22;100.00;65034.22;5053429;28;20467;-47
2022/12/06 02:30:42;;;;;;;34.57;31.70;;;;;;;-141.22;100.00;65034.22;5053833;28;20447;-44
2022/12/06 02:33:18;;;;;;;33.80;31.00;;;;;;;-141.22;100.00;65034.22;5052917;28;20463;-43
2022/12/06 02:35:50;;;;;;;34.40;31.80;;;;;;;-141.22;100.00;65034.22;5053539;28;20455;-45
2022/12/06 02:38:25;;;;;;;35.10;32.27;;;;;;;-141.22;100.00;65034.22;5053683;28;20467;-42
2022/12/06 02:40:58;;;;;;;34.20;31.50;;;;;;;-141.22;100.00;65034.22;5053746;28;20561;-43
2022/12/06 02:43:30;;;;;;;35.67;32.70;;;;;;;-141.22;100.00;65034.22;5052933;28;20463;-45
2022/12/06 02:46:02;;;;;;;34.57;31.90;;;;;;;-141.22;100.00;65034.22;5053563;28;20462;-43
2022/12/06 02:48:32;;;;;;;34.47;31.47;;;;;;;-141.22;100.00;65034.22;5053576;28;20481;-44
2022/12/06 02:51:03;;;;;;;34.40;31.87;;;;;;;-141.22;100.00;65034.22;5053271;28;20438;-46
2022/12/06 02:53:34;;;;;;;33.73;31.10;;;;;;;-141.22;100.00;65034.22;5052662;28;20466;-43
2022/12/06 02:56:02;;;;;;;34.43;31.73;;;;;;;-141.22;100.00;65034.22;5052944;28;20447;-45
2022/12/06 02:58:34;;;;;;;33.70;31.00;;;;;;;-141.22;100.00;65034.22;5053010;28;20471;-44
2022/12/06 03:01:06;;;;;;;33.03;30.43;;;;;;;-141.22;100.00;65034.22;5053166;28;20427;-42
2022/12/06 03:04:01;;;;;;;34.07;31.37;;;;;;;-141.22;100.00;65034.22;5052413;28;20463;-48
2022/12/06 03:07:00;;;;;;;33.17;30.87;;;;;;;-141.22;100.00;65034.22;5052949;28;20451;-48
2022/12/06 03:09:44;;;;;;;34.63;32.03;;;;;;;-141.22;100.00;65034.22;5053123;28;20435;-47
2022/12/06 03:12:23;;;;;;;34.90;32.20;;;;;;;-141.22;100.00;65034.22;5052514;28;20454;-46
2022/12/06 03:15:00;;;;;;;35.67;33.00;;;;;;;-141.22;100.00;65034.22;5052656;28;20946;-45
2022/12/06 03:17:39;;;;;;;35.83;32.90;;;;;;;-141.22;100.00;65034.22;5052965;28;20501;-44
2022/12/06 03:20:11;;;;;;;36.20;33.20;;;;;;;-141.22;100.00;65034.22;5052939;28;20419;-46
2022/12/06 03:22:42;;;;;;;38.97;35.73;;;;;;;-141.22;100.00;65034.22;5052433;28;21065;-50
2022/12/06 03:25:10;;;;;;;36.67;33.70;;;;;;;-141.22;100.00;65034.22;5052477;28;20454;-44
2022/12/06 03:27:40;;;;;;;37.40;33.97;;;;;;;-141.22;100.00;65034.22;5052854;28;20649;-44
2022/12/06 03:32:59;;;;;;;37.97;34.63;;;;;;;-141.22;100.00;65034.22;5022918;28;21000;-45
2022/12/06 03:35:30;;;;;;;38.83;35.43;;;;;;;-141.22;100.00;65034.22;5032512;28;20432;-46
2022/12/06 03:38:04;;;;;;;39.23;35.47;;;;;;;-141.22;100.00;65034.22;5032526;28;21015;-45
2022/12/06 03:40:36;;;;;;;37.67;34.90;;;;;;;-141.22;100.00;65034.22;5032441;28;20961;-46
2022/12/06 03:43:05;;;;;;;37.77;34.00;;;;;;;-141.22;100.00;65034.22;5032226;28;20455;-46
2022/12/06 03:45:38;;;;;;;39.07;35.73;;;;;;;-141.22;100.00;65034.22;5032419;28;20440;-47
2022/12/06 03:48:12;;;;;;;37.00;34.00;;;;;;;-141.22;100.00;65034.22;5032285;28;20432;-46
2022/12/06 03:50:44;;;;;;;38.13;34.93;;;;;;;-141.22;100.00;65034.22;5032534;28;20459;-48
2022/12/06 03:53:12;;;;;;;39.87;36.07;;;;;;;-141.22;100.00;65034.22;5031857;28;20460;-47
2022/12/06 03:55:41;;;;;;;36.90;33.57;;;;;;;-141.22;100.00;65034.22;5032137;28;20821;-45
2022/12/06 03:58:08;;;;;;;37.40;34.20;;;;;;;-141.22;100.00;65034.22;5021327;28;20472;-47
2022/12/06 04:00:36;;;;;;;36.83;33.63;;;;;;;-141.22;100.00;65034.22;5012198;28;20449;-47
2022/12/06 04:03:04;;;;;;;36.87;33.70;;;;;;;-141.22;100.00;65034.22;5011916;28;20552;-46
2022/12/06 04:05:33;;;;;;;36.13;33.13;;;;;;;-141.22;100.00;65034.22;5012533;28;20437;-47
2022/12/06 04:08:00;;;;;;;38.30;35.13;;;;;;;-141.22;100.00;65034.22;5012329;28;20946;-45
2022/12/06 04:10:28;;;;;;;37.67;34.40;;;;;;;-141.22;100.00;65034.22;5012278;28;20441;-47
2022/12/06 04:13:01;;;;;;;39.33;35.90;;;;;;;-141.22;100.00;65034.22;5012093;28;20461;-47
2022/12/06 04:15:31;;;;;;;37.83;34.53;;;;;;;-141.22;100.00;65034.22;5012008;28;20429;-45
2022/12/06 04:18:12;;;;;;;39.37;35.93;;;;;;;-141.22;100.00;65034.22;5012642;28;20473;-45
2022/12/06 04:23:29;;;;;;;40.93;37.30;;;;;;;-141.22;100.00;65034.22;5011716;28;20465;-49
2022/12/06 04:25:56;;;;;;;38.83;35.47;;;;;;;-141.22;100.00;65034.22;5012118;28;20445;-46
2022/12/06 04:39:27;;;;;;;38.07;34.87;;;;;;;-141.22;100.00;65034.22;5012030;28;20484;-46
2022/12/06 04:44:40;;;;;;;41.83;37.60;;;;;;;-141.22;100.00;65034.22;5011624;28;20433;-47
2022/12/06 04:47:08;;;;;;;39.83;36.40;;;;;;;-141.22;100.00;65034.22;5012067;28;20440;-46
2022/12/06 04:49:37;;;;;;;39.80;36.50;;;;;;;-141.22;100.00;65034.22;5011169;28;20440;-44
2022/12/06 04:52:08;;;;;;;41.07;37.30;;;;;;;-141.22;100.00;65034.22;5010634;28;20469;-45
2022/12/06 04:54:35;;;;;;;43.57;39.67;;;;;;;-141.22;100.00;65034.22;5011444;28;20444;-46
2022/12/06 04:57:09;;;;;;;42.77;39.07;;;;;;;-141.22;100.00;65034.22;5029225;28;20440;-48
2022/12/06 04:59:38;;;;;;;42.70;38.70;;;;;;;-141.22;100.00;65034.22;5011685;28;20993;-45
2022/12/06 05:02:06;;;;;;;41.03;37.40;;;;;;;-141.22;100.00;65034.22;5011480;28;20473;-47
2022/12/06 05:04:34;;;;;;;40.03;36.70;;;;;;;-141.22;100.00;65034.22;5011652;28;20436;-45
2022/12/06 05:07:02;;;;;;;40.17;36.60;;;;;;;-141.22;100.00;65034.22;5011770;28;20441;-45
2022/12/06 05:09:30;;;;;;;41.97;38.30;;;;;;;-141.22;100.00;65034.22;5011773;28;20425;-45
2022/12/06 05:11:58;;;;;;;39.80;36.47;;;;;;;-141.22;100.00;65034.22;5011084;28;20472;-45
2022/12/06 05:14:26;;;;;;;41.63;37.70;;;;;;;-141.22;100.00;65034.22;5011586;28;20429;-45
2022/12/06 05:16:53;;;;;;;41.13;37.47;;;;;;;-141.22;100.00;65034.22;5012005;28;20463;-46
2022/12/06 05:19:21;;;;;;;38.33;35.17;;;;;;;-141.22;100.00;65034.22;5011564;28;20483;-45
2022/12/06 05:21:49;;;;;;;41.40;37.60;;;;;;;-141.22;100.00;65034.22;5011210;28;20457;-46
2022/12/06 05:24:17;;;;;;;40.33;36.83;;;;;;;-141.22;100.00;65034.22;5011266;28;20433;-45
2022/12/06 05:26:46;;;;;;;41.97;38.03;;;;;;;-141.22;100.00;65034.22;5011771;28;20437;-45
2022/12/06 05:29:13;;;;;;;40.30;36.80;;;;;;;-141.22;100.00;65034.22;5011825;28;20429;-46
2022/12/06 05:31:41;;;;;;;42.53;38.87;;;;;;;-141.22;100.00;65034.22;5010969;28;20461;-46
2022/12/06 05:34:09;;;;;;;42.20;38.27;;;;;;;-141.22;100.00;65034.22;5011297;28;20483;-45
2022/12/06 05:36:37;;;;;;;43.00;38.90;;;;;;;-141.22;100.00;65034.22;5011369;28;20433;-45
2022/12/06 05:39:04;;;;;;;42.37;38.30;;;;;;;-141.22;100.00;65034.22;5011274;28;20472;-46
2022/12/06 05:41:32;;;;;;;43.27;39.37;;;;;;;-141.22;100.00;65034.22;5011052;28;20966;-47
2022/12/06 05:44:01;;;;;;;41.63;38.03;;;;;;;-141.22;100.00;65034.22;5012486;28;20433;-45
2022/12/06 05:46:29;;;;;;;41.70;37.87;;;;;;;-141.22;100.00;65034.22;5014969;28;20440;-46
2022/12/06 05:48:57;;;;;;;41.53;37.73;;;;;;;-141.22;100.00;65034.22;5014772;28;20433;-45
2022/12/06 05:51:24;;;;;;;42.63;38.60;;;;;;;-141.22;100.00;65034.22;5014746;28;21025;-45
2022/12/06 05:53:52;;;;;;;42.17;38.20;;;;;;;-141.22;100.00;65034.22;5014230;28;20456;-46
2022/12/06 05:56:20;;;;;;;43.77;39.27;;;;;;;-141.22;100.00;65034.22;5030005;28;20435;-45
2022/12/06 05:58:47;;;;;;;44.17;39.60;;;;;;;-141.22;100.00;65034.22;5034331;28;20476;-44
2022/12/06 06:01:16;;;;;;;43.07;38.83;;;;;;;-141.22;100.00;65034.22;5034181;28;20452;-46
2022/12/06 06:03:44;;;;;;;44.07;39.50;;;;;;;-141.22;100.00;65034.22;5033534;28;20471;-45
2022/12/06 06:06:14;;;;;;;42.83;39.27;;;;;;;-141.22;100.00;65034.22;5034537;28;20438;-45
2022/12/06 06:08:42;;;;;;;44.57;40.30;;;;;;;-141.22;100.00;65034.22;5034397;28;20428;-47
2022/12/06 06:11:10;;;;;;;43.27;39.10;;;;;;;-141.22;100.00;65034.22;5034272;28;20535;-47
2022/12/06 06:13:38;;;;;;;44.93;40.20;;;;;;;-141.22;100.00;65034.22;5033390;28;20467;-45
2022/12/06 06:16:06;;;;;;;44.10;40.00;;;;;;;-141.22;100.00;65034.22;5033958;28;20432;-46
2022/12/06 06:18:36;;;;;;;43.80;39.60;;;;;;;-141.22;100.00;65034.22;5034172;28;21051;-45
2022/12/06 06:21:04;;;;;;;43.87;39.43;;;;;;;-141.22;100.00;65034.22;5034018;28;20458;-46
2022/12/06 06:23:32;;;;;;;42.77;38.77;;;;;;;-141.22;100.00;65034.22;5033495;28;20475;-45
2022/12/06 06:25:59;;;;;;;44.50;39.23;;;;;;;-141.22;100.00;65034.22;5033904;28;20451;-45
2022/12/06 06:28:27;;;;;;;42.83;38.63;;;;;;;-141.22;100.00;65034.22;5033935;28;20531;-45
2022/12/06 06:30:54;;;;;;;44.07;39.67;;;;;;;-141.22;100.00;65034.22;5033458;28;20464;-45
2022/12/06 06:33:22;;;;;;;43.63;39.43;;;;;;;-141.22;100.00;65034.22;5033324;28;20464;-45
2022/12/06 06:35:51;;;;;;;44.07;39.87;;;;;;;-141.22;100.00;65034.22;5033937;28;20439;-45
2022/12/06 06:38:19;;;;;;;44.60;40.10;;;;;;;-141.22;100.00;65034.22;5033611;28;20440;-45
2022/12/06 06:40:46;;;;;;;44.70;40.50;;;;;;;-141.22;100.00;65034.22;5033517;28;20456;-44
2022/12/06 06:43:20;;;;;;;42.67;38.47;;;;;;;-141.22;100.00;65034.22;5033016;28;20474;-46
2022/12/06 06:45:52;;;;;;;43.77;39.40;;;;;;;-141.22;100.00;65034.22;5033532;28;20976;-45
2022/12/06 06:48:20;;;;;;;43.60;39.63;;;;;;;-141.22;100.00;65034.22;5033573;28;20443;-47
2022/12/06 06:50:48;;;;;;;42.33;38.10;;;;;;;-141.22;100.00;65034.22;5033365;28;20448;-47
2022/12/06 06:53:26;;;;;;;43.50;39.10;;;;;;;-141.22;100.00;65034.22;5032768;28;20547;-46
2022/12/06 06:55:53;;;;;;;44.87;39.30;;;;;;;-141.22;100.00;65034.22;5032553;28;20432;-45
2022/12/06 06:58:21;;;;;;;44.90;40.10;;;;;;;-141.22;100.00;65034.22;5020451;28;20961;-44
2022/12/06 07:00:52;;;;;;;43.50;39.40;;;;;;;-141.22;100.00;65034.22;5013476;28;20477;-45
2022/12/06 07:03:21;;;;;;;43.47;39.33;;;;;;;-141.22;100.00;65034.22;5012812;28;20468;-45
2022/12/06 07:05:51;;;;;;;41.87;37.97;;;;;;;-141.22;100.00;65034.22;5013233;28;20951;-45
2022/12/06 07:08:19;;;;;;;43.67;39.23;;;;;;;-141.22;100.00;65034.22;5013207;28;20444;-47
2022/12/06 07:10:48;;;;;;;42.83;38.40;;;;;;;-141.22;100.00;65034.22;5013371;28;20540;-44
2022/12/06 07:13:16;;;;;;;42.63;38.63;;;;;;;-141.22;100.00;65034.22;5012734;28;20867;-47
2022/12/06 07:15:44;;;;;;;42.80;39.10;;;;;;;-141.22;100.00;65034.22;5013215;28;20453;-45
2022/12/06 07:18:12;;;;;;;47.17;42.80;;;;;;;-141.22;100.00;65034.22;5013150;28;20781;-45
2022/12/06 07:20:40;;;;;;;43.90;39.20;;;;;;;-141.22;100.00;65034.22;5012941;28;20480;-45
2022/12/06 07:23:07;;;;;;;42.53;38.57;;;;;;;-141.22;100.00;65034.22;5012553;28;20845;-45
2022/12/06 07:25:35;;;;;;;41.60;37.90;;;;;;;-141.22;100.00;65034.22;5013170;28;20429;-47
2022/12/06 07:28:05;;;;;;;45.73;41.17;;;;;;;-141.22;100.00;65034.22;5012904;28;20957;-45
2022/12/06 07:30:33;;;;;;;44.63;39.93;;;;;;;-141.22;100.00;65034.22;5012854;28;20464;-45
2022/12/06 07:33:01;;;;;;;40.63;37.13;;;;;;;-141.22;100.00;65034.22;5012597;28;20496;-46
2022/12/06 07:35:28;;;;;;;44.63;40.50;;;;;;;-141.22;100.00;65034.22;5012554;28;20440;-45
2022/12/06 07:38:16;;;;;;;42.13;38.33;;;;;;;-141.22;100.00;65034.22;5013063;28;20433;-46
2022/12/06 07:40:44;;;;;;;42.00;38.37;;;;;;;-141.22;100.00;65034.22;5012941;28;20483;-45
2022/12/06 07:46:18;;;;;;;41.60;37.73;;;;;;;-141.22;100.00;65034.22;5013235;28;20413;-45
2022/12/06 07:48:45;;;;;;;41.27;37.50;;;;;;;-141.22;100.00;65034.22;5012817;28;20580;-46
2022/12/06 07:51:13;;;;;;;39.20;35.80;;;;;;;-141.22;100.00;65034.22;5012753;28;20449;-46
2022/12/06 07:53:40;;;;;;;38.87;35.43;;;;;;;-141.22;100.00;65034.22;5011855;28;20827;-45
2022/12/06 07:56:09;;;;;;;39.30;35.90;;;;;;;-141.22;100.00;65034.22;5025832;28;20436;-44
2022/12/06 07:58:38;;;;;;;39.57;36.00;;;;;;;-141.22;100.00;65034.22;5017612;28;20440;-46
2022/12/06 08:01:05;;;;;;;40.33;36.93;;;;;;;-141.22;100.00;65034.22;5012517;28;20473;-47
2022/12/06 08:03:33;;;;;;;39.87;36.43;;;;;;;-141.22;100.00;65034.22;5011801;28;20465;-45
2022/12/06 08:06:01;;;;;;;38.83;35.50;;;;;;;-141.22;100.00;65034.22;5011780;28;20461;-46
2022/12/06 08:08:28;;;;;;;39.00;35.70;;;;;;;-141.22;100.00;65034.22;5012126;28;20444;-45
2022/12/06 08:10:58;;;;;;;37.93;34.97;;;;;;;-141.22;100.00;65034.22;5012180;28;20485;-47
2022/12/06 08:13:26;;;;;;;36.93;33.73;;;;;;;-141.22;100.00;65034.22;5011708;28;20469;-46
2022/12/06 08:15:56;;;;;;;39.07;35.77;;;;;;;-141.22;100.00;65034.22;5012377;28;20441;-47
2022/12/06 08:18:24;;;;;;;37.53;34.33;;;;;;;-141.22;100.00;65034.22;5012296;28;20461;-44
2022/12/06 08:20:52;;;;;;;36.73;33.73;;;;;;;-141.22;100.00;65034.22;5011972;28;20564;-46
2022/12/06 08:23:19;;;;;;;38.63;35.57;;;;;;;-141.22;100.00;65034.22;5011256;28;20465;-46
2022/12/06 08:25:56;;;;;;;36.40;33.47;;;;;;;-141.22;100.00;65034.22;5012145;28;20433;-45
2022/12/06 08:28:24;;;;;;;36.50;33.50;;;;;;;-141.22;100.00;65034.22;5012211;28;20432;-48
2022/12/06 08:30:51;;;;;;;36.87;33.70;;;;;;;-141.22;100.00;65034.22;5011953;28;20927;-47
2022/12/06 08:33:27;;;;;;;36.37;33.43;;;;;;;-141.22;100.00;65034.22;5011450;28;20468;-47
2022/12/06 08:35:54;;;;;;;36.43;33.50;;;;;;;-141.22;100.00;65034.22;5012901;28;20476;-49
2022/12/06 08:38:22;;;;;;;37.20;33.90;;;;;;;-141.22;100.00;65034.22;5012400;28;20887;-46
2022/12/06 08:40:49;;;;;;;36.00;32.77;;;;;;;-141.22;100.00;65034.22;5012217;28;20840;-45
2022/12/06 08:43:17;;;;;;;36.50;33.40;;;;;;;-141.22;100.00;65034.22;5011438;28;20468;-45
2022/12/06 08:45:50;;;;;;;35.00;32.20;;;;;;;-141.22;100.00;65034.22;5012010;28;20436;-46
2022/12/06 08:48:18;;;;;;;36.23;33.23;;;;;;;-141.22;100.00;65034.22;5011728;28;20437;-46
2022/12/06 08:50:47;;;;;;;34.87;32.10;;;;;;;-141.22;100.00;65034.22;5012023;28;20449;-45
2022/12/06 08:53:15;;;;;;;33.97;31.07;;;;;;;-141.22;100.00;65034.22;5011083;28;20862;-44
2022/12/06 08:55:42;;;;;;;35.93;33.00;;;;;;;-141.22;100.00;65034.22;5021886;28;20439;-47
2022/12/06 08:58:10;;;;;;;35.90;33.10;;;;;;;-141.22;100.00;65034.22;5020258;28;20437;-46
2022/12/06 09:00:37;;;;;;;34.07;31.37;;;;;;;-141.22;100.00;65034.22;5011471;28;20485;-45
2022/12/06 09:03:05;;;;;;;34.30;31.60;;;;;;;-141.22;100.00;65034.22;5011361;28;20469;-47
2022/12/06 09:05:35;;;;;;;33.40;30.97;;;;;;;-141.22;100.00;65034.22;5011971;28;20507;-45
2022/12/06 09:08:04;;;;;;;33.30;30.87;;;;;;;-141.22;100.00;65034.22;5011779;28;20445;-44
2022/12/06 09:10:32;;;;;;;34.30;31.47;;;;;;;-141.22;100.00;65034.22;5011674;28;20439;-44
2022/12/06 09:12:59;;;;;;;33.33;30.73;;;;;;;-141.22;100.00;65034.22;5011323;28;20483;-47
2022/12/06 09:15:27;;;;;;;34.73;32.20;;;;;;;-141.22;100.00;65034.22;5011496;28;20441;-46
2022/12/06 09:17:54;;;;;;;34.27;31.47;;;;;;;-141.22;100.00;65034.22;5012942;28;20802;-47
2022/12/06 09:20:22;;;;;;;34.63;31.93;;;;;;;-141.22;100.00;65034.22;5015727;28;20854;-45
2022/12/06 09:22:50;;;;;;;34.03;31.57;;;;;;;-141.22;100.00;65034.22;5015201;28;20461;-47
2022/12/06 09:25:19;;;;;;;35.33;32.73;;;;;;;-141.22;100.00;65034.22;5015280;28;20440;-48
2022/12/06 09:27:47;;;;;;;35.20;32.50;;;;;;;-141.22;100.00;65034.22;5015409;28;20535;-44
2022/12/06 09:30:15;;;;;;;36.07;33.17;;;;;;;-141.22;100.00;65034.22;5015444;28;20466;-47
2022/12/06 09:32:44;;;;;;;36.20;33.50;;;;;;;-141.22;100.00;65034.22;5069765;22;20473;-46
2022/12/06 09:35:11;;;;;;;35.80;32.90;;;;;;;-141.22;100.00;65034.22;5046114;28;20428;-45
2022/12/06 09:37:43;;;;;;;36.77;34.07;;;;;;;-141.22;100.00;65034.22;5054779;28;20777;-45
2022/12/06 09:40:16;;;;;;;36.33;33.77;;;;;;;-141.22;100.00;65034.22;5054743;28;20556;-45
2022/12/06 09:43:07;;;;;;;37.33;34.43;;;;;;;-141.22;100.00;65034.22;5054024;28;20463;-46
2022/12/06 09:45:48;;;;;;;35.43;32.93;;;;;;;-141.22;100.00;65034.22;5054365;28;20438;-46
2022/12/06 09:48:35;;;;;;;35.33;32.77;;;;;;;-141.22;100.00;65034.22;5054403;28;20990;-45
2022/12/06 09:51:14;;;;;;;36.40;33.60;;;;;;;-141.22;100.00;65034.22;5054707;28;20423;-47
2022/12/06 09:53:56;;;;;;;35.47;33.07;;;;;;;-141.22;100.00;65034.22;5053816;28;20474;-48
2022/12/06 09:56:28;;;;;;;34.87;32.43;;;;;;;-141.22;100.00;65034.22;5054657;28;20426;-48
2022/12/06 09:59:10;;;;;;;32.47;30.07;;;;;;;-141.22;100.00;65034.22;5054487;28;20423;-47
2022/12/06 10:01:49;;;;;;;32.70;30.50;;;;;;;-141.22;100.00;65034.22;5053538;28;20553;-45
2022/12/06 10:04:38;;;;;;;32.63;30.33;;;;;;;-141.22;100.00;65034.22;5054187;28;20789;-48
2022/12/06 10:07:15;;;;;;;31.23;29.23;;;;;;;-141.22;100.00;65034.22;5054140;28;20443;-47
2022/12/06 10:09:52;;;;;;;32.13;29.97;;;;;;;-141.22;100.00;65034.22;5054307;28;20434;-47
2022/12/06 10:12:34;;;;;;;32.00;29.73;;;;;;;-141.22;100.00;65034.22;5053673;28;20471;-49
2022/12/06 10:15:20;;;;;;;32.40;30.20;;;;;;;-141.22;100.00;65034.22;5053762;28;20928;-46
2022/12/06 10:18:07;;;;;;;33.07;30.83;;;;;;;-141.22;100.00;65034.22;5053741;28;20442;-45
2022/12/06 10:20:42;;;;;;;31.17;28.97;;;;;;;-141.22;100.00;65034.22;5054203;28;20481;-48
2022/12/06 10:23:22;;;;;;;32.20;29.60;;;;;;;-141.22;100.00;65034.22;5053719;28;20481;-51
2022/12/06 10:26:00;;;;;;;31.33;29.23;;;;;;;-141.22;100.00;65034.22;5054191;28;20431;-56
2022/12/06 10:28:38;;;;;;;32.53;30.13;;;;;;;-141.22;100.00;65034.22;5054167;28;20431;-50
2022/12/06 10:31:18;;;;;;;32.10;29.83;;;;;;;-141.22;100.00;65034.22;5053494;28;20430;-49
2022/12/06 10:33:54;;;;;;;31.70;29.53;;;;;;;-141.22;100.00;65034.22;5053392;28;20463;-49
2022/12/06 10:36:33;;;;;;;32.43;30.10;;;;;;;-141.22;100.00;65034.22;5054034;28;20438;-56
2022/12/06 10:39:09;;;;;;;31.83;29.63;;;;;;;-141.22;100.00;65034.22;5054532;28;20427;-54
2022/12/06 10:41:43;;;;;;;30.87;28.77;;;;;;;-141.22;100.00;65034.22;5054083;28;20481;-53
2022/12/06 10:44:19;;;;;;;32.00;29.80;;;;;;;-141.22;100.00;65034.22;5054506;28;20437;-53
2022/12/06 10:47:03;;;;;;;32.00;29.77;;;;;;;-141.22;100.00;65034.22;5055145;28;20423;-56
2022/12/06 10:49:39;;;;;;;33.10;30.70;;;;;;;-141.22;100.00;65034.22;5054606;28;20431;-51
2022/12/06 10:52:22;;;;;;;32.43;30.10;;;;;;;-141.22;100.00;65034.22;5053932;28;20462;-52
2022/12/06 10:54:58;;;;;;;32.93;30.63;;;;;;;-141.22;100.00;65034.22;5053834;28;20431;-50
2022/12/06 10:57:36;;;;;;;33.13;30.40;;;;;;;-141.22;100.00;65034.22;5053934;28;20445;-48
2022/12/06 11:00:13;;;;;;;33.13;30.73;;;;;;;-141.22;100.00;65034.22;5054220;28;20422;-50
2022/12/06 11:02:52;;;;;;;32.20;29.87;;;;;;;-141.22;100.00;65034.22;5053350;28;20467;-52
2022/12/06 11:05:25;;;;;;;31.10;28.90;;;;;;;-141.22;100.00;65034.22;5053594;28;20939;-51
2022/12/06 11:08:01;;;;;;;30.57;28.47;;;;;;;-141.22;100.00;65034.22;5053682;28;20940;-49
2022/12/06 11:10:32;;;;;;;31.03;28.83;;;;;;;-141.22;100.00;65034.22;5054147;28;20434;-51
2022/12/06 11:13:11;;;;;;;31.07;28.97;;;;;;;-141.22;100.00;65034.22;5052890;28;20546;-54
2022/12/06 11:15:44;;;;;;;30.20;28.20;;;;;;;-141.22;100.00;65034.22;5053881;28;20534;-51
2022/12/06 11:18:16;;;;;;;30.73;28.63;;;;;;;-141.22;100.00;65034.22;5053559;28;20530;-54
2022/12/06 11:20:49;;;;;;;30.90;28.83;;;;;;;-141.22;100.00;65034.22;5053325;28;20428;-54
2022/12/06 11:23:23;;;;;;;29.97;28.10;;;;;;;-141.22;100.00;65034.22;5052710;28;20467;-48
2022/12/06 11:26:02;;;;;;;29.07;27.07;;;;;;;-141.22;100.00;65034.22;5053430;28;20506;-53
2022/12/06 11:28:36;;;;;;;28.80;27.10;;;;;;;-141.22;100.00;65034.22;5053348;28;20441;-50
2022/12/06 11:31:15;;;;;;;26.53;24.93;;;;;;;-141.22;100.00;65034.22;5053196;28;20439;-53
2022/12/06 11:33:45;;;;;;;29.70;27.70;;;;;;;-141.22;100.00;65034.22;5052333;28;20494;-53